sensor_id;sensor_type;location;lat;lon;timestamp;P1;durP1;ratioP1;P2;durP2;ratioP2
73675;SDS011;61975;48.660;10.164;2023-05-10T00:01:01;6.90;;;3.70;;
73675;SDS011;61975;48.660;10.164;2023-05-10T00:03:27;6.38;;;3.67;;
73675;SDS011;61975;48.660;10.164;2023-05-10T00:05:53;7.23;;;4.10;;
73675;SDS011;61975;48.660;10.164;2023-05-10T00:08:18;6.73;;;3.87;;
73675;SDS011;61975;48.660;10.164;2023-05-10T00:10:44;6.43;;;3.80;;
73675;SDS011;61975;48.660;10.164;2023-05-10T00:13:09;5.93;;;3.50;;
73675;SDS011;61975;48.660;10.164;2023-05-10T00:15:35;6.35;;;3.72;;
73675;SDS011;61975;48.660;10.164;2023-05-10T00:18:00;7.60;;;4.13;;
73675;SDS011;61975;48.660;10.164;2023-05-10T00:20:26;7.23;;;3.93;;
73675;SDS011;61975;48.660;10.164;2023-05-10T00:22:51;8.63;;;3.67;;
73675;SDS011;61975;48.660;10.164;2023-05-10T00:25:16;6.70;;;3.73;;
73675;SDS011;61975;48.660;10.164;2023-05-10T00:27:42;7.20;;;3.87;;
73675;SDS011;61975;48.660;10.164;2023-05-10T00:30:07;7.27;;;4.07;;
73675;SDS011;61975;48.660;10.164;2023-05-10T00:32:33;6.78;;;4.00;;
73675;SDS011;61975;48.660;10.164;2023-05-10T00:34:58;6.63;;;4.00;;
73675;SDS011;61975;48.660;10.164;2023-05-10T00:37:24;6.57;;;3.90;;
73675;SDS011;61975;48.660;10.164;2023-05-10T00:39:49;6.50;;;3.60;;
73675;SDS011;61975;48.660;10.164;2023-05-10T00:42:15;6.20;;;3.73;;
73675;SDS011;61975;48.660;10.164;2023-05-10T00:44:40;7.17;;;3.30;;
73675;SDS011;61975;48.660;10.164;2023-05-10T00:47:06;6.17;;;3.60;;
73675;SDS011;61975;48.660;10.164;2023-05-10T00:49:32;6.25;;;3.45;;
73675;SDS011;61975;48.660;10.164;2023-05-10T00:51:57;7.27;;;3.87;;
73675;SDS011;61975;48.660;10.164;2023-05-10T00:54:23;5.90;;;3.23;;
73675;SDS011;61975;48.660;10.164;2023-05-10T00:56:49;6.10;;;3.58;;
73675;SDS011;61975;48.660;10.164;2023-05-10T00:59:15;6.10;;;3.53;;
73675;SDS011;61975;48.660;10.164;2023-05-10T01:01:42;6.88;;;3.78;;
73675;SDS011;61975;48.660;10.164;2023-05-10T01:04:08;5.45;;;3.20;;
73675;SDS011;61975;48.660;10.164;2023-05-10T01:06:36;6.18;;;3.60;;
73675;SDS011;61975;48.660;10.164;2023-05-10T01:15:16;6.70;;;3.22;;
73675;SDS011;61975;48.660;10.164;2023-05-10T01:17:43;5.77;;;2.93;;
73675;SDS011;61975;48.660;10.164;2023-05-10T01:20:10;5.78;;;2.85;;
73675;SDS011;61975;48.660;10.164;2023-05-10T01:34:06;3.40;;;1.58;;
73675;SDS011;61975;48.660;10.164;2023-05-10T01:36:45;3.45;;;1.70;;
73675;SDS011;61975;48.660;10.164;2023-05-10T01:39:28;3.35;;;1.55;;
73675;SDS011;61975;48.660;10.164;2023-05-10T01:42:07;3.00;;;1.30;;
73675;SDS011;61975;48.660;10.164;2023-05-10T01:44:37;3.33;;;1.20;;
73675;SDS011;61975;48.660;10.164;2023-05-10T01:47:09;2.78;;;1.23;;
73675;SDS011;61975;48.660;10.164;2023-05-10T01:49:43;2.92;;;1.20;;
73675;SDS011;61975;48.660;10.164;2023-05-10T01:52:14;3.60;;;1.10;;
73675;SDS011;61975;48.660;10.164;2023-05-10T01:54:53;2.20;;;0.80;;
73675;SDS011;61975;48.660;10.164;2023-05-10T01:57:25;2.00;;;0.80;;
73675;SDS011;61975;48.660;10.164;2023-05-10T01:59:52;2.08;;;0.60;;
73675;SDS011;61975;48.660;10.164;2023-05-10T02:02:20;1.40;;;0.35;;
73675;SDS011;61975;48.660;10.164;2023-05-10T02:04:46;1.40;;;0.35;;
73675;SDS011;61975;48.660;10.164;2023-05-10T02:07:12;1.33;;;0.30;;
73675;SDS011;61975;48.660;10.164;2023-05-10T02:09:39;0.90;;;0.17;;
73675;SDS011;61975;48.660;10.164;2023-05-10T02:12:07;1.10;;;0.20;;
73675;SDS011;61975;48.660;10.164;2023-05-10T02:14:34;1.13;;;0.30;;
73675;SDS011;61975;48.660;10.164;2023-05-10T02:17:01;1.27;;;0.20;;
73675;SDS011;61975;48.660;10.164;2023-05-10T02:19:29;0.80;;;0.10;;
73675;SDS011;61975;48.660;10.164;2023-05-10T02:21:56;1.77;;;0.20;;
73675;SDS011;61975;48.660;10.164;2023-05-10T02:24:22;0.85;;;0.10;;
73675;SDS011;61975;48.660;10.164;2023-05-10T02:26:49;0.70;;;0.10;;
73675;SDS011;61975;48.660;10.164;2023-05-10T02:29:19;0.98;;;0.20;;
73675;SDS011;61975;48.660;10.164;2023-05-10T02:31:45;0.88;;;0.20;;
73675;SDS011;61975;48.660;10.164;2023-05-10T02:34:12;0.70;;;0.13;;
73675;SDS011;61975;48.660;10.164;2023-05-10T02:36:38;0.60;;;0.13;;
73675;SDS011;61975;48.660;10.164;2023-05-10T02:39:06;1.27;;;0.20;;
73675;SDS011;61975;48.660;10.164;2023-05-10T02:41:35;0.93;;;0.20;;
73675;SDS011;61975;48.660;10.164;2023-05-10T02:44:01;0.73;;;0.20;;
73675;SDS011;61975;48.660;10.164;2023-05-10T02:46:27;1.10;;;0.20;;
73675;SDS011;61975;48.660;10.164;2023-05-10T02:48:53;1.40;;;0.30;;
73675;SDS011;61975;48.660;10.164;2023-05-10T02:51:19;1.77;;;0.20;;
73675;SDS011;61975;48.660;10.164;2023-05-10T02:53:49;0.90;;;0.20;;
73675;SDS011;61975;48.660;10.164;2023-05-10T02:56:25;1.20;;;0.25;;
73675;SDS011;61975;48.660;10.164;2023-05-10T02:58:56;0.95;;;0.25;;
73675;SDS011;61975;48.660;10.164;2023-05-10T03:01:22;1.20;;;0.20;;
73675;SDS011;61975;48.660;10.164;2023-05-10T03:03:47;2.17;;;0.37;;
73675;SDS011;61975;48.660;10.164;2023-05-10T03:06:13;1.13;;;0.30;;
73675;SDS011;61975;48.660;10.164;2023-05-10T03:08:38;1.25;;;0.30;;
73675;SDS011;61975;48.660;10.164;2023-05-10T03:13:35;1.80;;;0.50;;
73675;SDS011;61975;48.660;10.164;2023-05-10T03:16:08;1.98;;;0.60;;
73675;SDS011;61975;48.660;10.164;2023-05-10T03:21:25;1.90;;;0.40;;
73675;SDS011;61975;48.660;10.164;2023-05-10T03:24:27;1.70;;;0.40;;
73675;SDS011;61975;48.660;10.164;2023-05-10T03:26:47;1.70;;;0.40;;
73675;SDS011;61975;48.660;10.164;2023-05-10T03:29:14;3.08;;;0.40;;
73675;SDS011;61975;48.660;10.164;2023-05-10T03:31:41;1.73;;;0.40;;
73675;SDS011;61975;48.660;10.164;2023-05-10T03:34:07;1.70;;;0.47;;
73675;SDS011;61975;48.660;10.164;2023-05-10T03:36:32;1.50;;;0.40;;
73675;SDS011;61975;48.660;10.164;2023-05-10T03:38:58;2.80;;;0.60;;
73675;SDS011;61975;48.660;10.164;2023-05-10T03:41:23;3.78;;;0.50;;
73675;SDS011;61975;48.660;10.164;2023-05-10T03:43:50;1.80;;;0.40;;
73675;SDS011;61975;48.660;10.164;2023-05-10T03:46:16;2.60;;;0.70;;
73675;SDS011;61975;48.660;10.164;2023-05-10T03:48:41;2.00;;;0.53;;
73675;SDS011;61975;48.660;10.164;2023-05-10T03:51:07;2.23;;;0.60;;
73675;SDS011;61975;48.660;10.164;2023-05-10T03:53:32;2.13;;;0.60;;
73675;SDS011;61975;48.660;10.164;2023-05-10T03:55:57;4.10;;;0.60;;
73675;SDS011;61975;48.660;10.164;2023-05-10T03:58:23;1.53;;;0.40;;
73675;SDS011;61975;48.660;10.164;2023-05-10T04:00:48;2.07;;;0.80;;
73675;SDS011;61975;48.660;10.164;2023-05-10T04:03:13;1.80;;;0.60;;
73675;SDS011;61975;48.660;10.164;2023-05-10T04:05:39;2.60;;;0.73;;
73675;SDS011;61975;48.660;10.164;2023-05-10T04:08:05;3.13;;;0.70;;
73675;SDS011;61975;48.660;10.164;2023-05-10T04:10:30;2.20;;;0.60;;
73675;SDS011;61975;48.660;10.164;2023-05-10T04:12:56;2.20;;;0.68;;
73675;SDS011;61975;48.660;10.164;2023-05-10T04:15:21;2.30;;;0.60;;
73675;SDS011;61975;48.660;10.164;2023-05-10T04:17:47;2.30;;;0.67;;
73675;SDS011;61975;48.660;10.164;2023-05-10T04:20:12;2.78;;;0.70;;
73675;SDS011;61975;48.660;10.164;2023-05-10T04:22:38;1.93;;;0.50;;
73675;SDS011;61975;48.660;10.164;2023-05-10T04:25:04;2.10;;;0.60;;
73675;SDS011;61975;48.660;10.164;2023-05-10T04:27:30;2.20;;;0.70;;
73675;SDS011;61975;48.660;10.164;2023-05-10T04:29:56;2.83;;;0.70;;
73675;SDS011;61975;48.660;10.164;2023-05-10T04:32:21;2.10;;;0.70;;
73675;SDS011;61975;48.660;10.164;2023-05-10T04:34:47;2.10;;;0.70;;
73675;SDS011;61975;48.660;10.164;2023-05-10T04:37:12;2.40;;;0.70;;
73675;SDS011;61975;48.660;10.164;2023-05-10T04:39:38;2.23;;;0.67;;
73675;SDS011;61975;48.660;10.164;2023-05-10T04:42:03;2.10;;;0.70;;
73675;SDS011;61975;48.660;10.164;2023-05-10T04:44:30;4.25;;;0.93;;
73675;SDS011;61975;48.660;10.164;2023-05-10T04:46:56;2.80;;;0.90;;
73675;SDS011;61975;48.660;10.164;2023-05-10T04:49:22;3.17;;;1.00;;
73675;SDS011;61975;48.660;10.164;2023-05-10T04:51:47;3.07;;;0.90;;
73675;SDS011;61975;48.660;10.164;2023-05-10T04:54:13;2.80;;;0.80;;
73675;SDS011;61975;48.660;10.164;2023-05-10T04:56:38;3.17;;;0.90;;
73675;SDS011;61975;48.660;10.164;2023-05-10T04:59:03;3.30;;;1.30;;
73675;SDS011;61975;48.660;10.164;2023-05-10T05:01:29;4.70;;;1.83;;
73675;SDS011;61975;48.660;10.164;2023-05-10T05:03:54;3.60;;;1.60;;
73675;SDS011;61975;48.660;10.164;2023-05-10T05:06:20;5.50;;;2.30;;
73675;SDS011;61975;48.660;10.164;2023-05-10T05:08:49;5.10;;;2.60;;
73675;SDS011;61975;48.660;10.164;2023-05-10T05:11:15;4.93;;;1.30;;
73675;SDS011;61975;48.660;10.164;2023-05-10T05:13:41;2.65;;;1.00;;
73675;SDS011;61975;48.660;10.164;2023-05-10T05:16:06;2.43;;;0.90;;
73675;SDS011;61975;48.660;10.164;2023-05-10T05:18:32;2.83;;;0.90;;
73675;SDS011;61975;48.660;10.164;2023-05-10T05:20:59;2.83;;;1.00;;
73675;SDS011;61975;48.660;10.164;2023-05-10T05:23:25;2.90;;;0.90;;
73675;SDS011;61975;48.660;10.164;2023-05-10T05:25:54;3.07;;;1.10;;
73675;SDS011;61975;48.660;10.164;2023-05-10T05:28:20;2.50;;;1.00;;
73675;SDS011;61975;48.660;10.164;2023-05-10T05:30:46;3.10;;;1.00;;
73675;SDS011;61975;48.660;10.164;2023-05-10T05:33:12;2.30;;;0.83;;
73675;SDS011;61975;48.660;10.164;2023-05-10T05:35:38;2.60;;;0.90;;
73675;SDS011;61975;48.660;10.164;2023-05-10T05:38:04;2.30;;;0.87;;
73675;SDS011;61975;48.660;10.164;2023-05-10T05:40:30;3.83;;;0.90;;
73675;SDS011;61975;48.660;10.164;2023-05-10T05:42:55;2.77;;;1.10;;
73675;SDS011;61975;48.660;10.164;2023-05-10T05:45:21;2.30;;;0.70;;
73675;SDS011;61975;48.660;10.164;2023-05-10T05:47:46;2.20;;;0.80;;
73675;SDS011;61975;48.660;10.164;2023-05-10T05:50:12;3.42;;;1.02;;
73675;SDS011;61975;48.660;10.164;2023-05-10T05:52:37;4.37;;;1.00;;
73675;SDS011;61975;48.660;10.164;2023-05-10T05:55:03;2.83;;;0.95;;
73675;SDS011;61975;48.660;10.164;2023-05-10T05:57:29;2.43;;;0.90;;
73675;SDS011;61975;48.660;10.164;2023-05-10T05:59:55;2.30;;;0.70;;
73675;SDS011;61975;48.660;10.164;2023-05-10T06:02:20;2.30;;;0.70;;
73675;SDS011;61975;48.660;10.164;2023-05-10T06:04:46;2.80;;;0.90;;
73675;SDS011;61975;48.660;10.164;2023-05-10T06:07:11;2.23;;;0.73;;
73675;SDS011;61975;48.660;10.164;2023-05-10T06:09:37;3.43;;;0.80;;
73675;SDS011;61975;48.660;10.164;2023-05-10T06:12:02;4.10;;;1.23;;
73675;SDS011;61975;48.660;10.164;2023-05-10T06:14:28;2.50;;;0.80;;
73675;SDS011;61975;48.660;10.164;2023-05-10T06:16:53;3.00;;;0.90;;
73675;SDS011;61975;48.660;10.164;2023-05-10T06:19:19;2.50;;;0.80;;
73675;SDS011;61975;48.660;10.164;2023-05-10T06:21:44;2.97;;;0.80;;
73675;SDS011;61975;48.660;10.164;2023-05-10T06:24:09;3.17;;;0.80;;
73675;SDS011;61975;48.660;10.164;2023-05-10T06:26:35;2.70;;;0.80;;
73675;SDS011;61975;48.660;10.164;2023-05-10T06:29:01;2.73;;;0.80;;
73675;SDS011;61975;48.660;10.164;2023-05-10T06:31:26;2.80;;;0.88;;
73675;SDS011;61975;48.660;10.164;2023-05-10T06:33:51;3.43;;;0.90;;
73675;SDS011;61975;48.660;10.164;2023-05-10T06:36:17;3.07;;;0.90;;
73675;SDS011;61975;48.660;10.164;2023-05-10T06:38:42;2.40;;;0.70;;
73675;SDS011;61975;48.660;10.164;2023-05-10T06:41:08;2.93;;;0.80;;
73675;SDS011;61975;48.660;10.164;2023-05-10T06:43:33;3.08;;;1.00;;
73675;SDS011;61975;48.660;10.164;2023-05-10T06:45:58;2.20;;;0.70;;
73675;SDS011;61975;48.660;10.164;2023-05-10T06:48:24;2.60;;;0.80;;
73675;SDS011;61975;48.660;10.164;2023-05-10T06:50:49;2.70;;;0.90;;
73675;SDS011;61975;48.660;10.164;2023-05-10T06:53:14;2.70;;;0.83;;
73675;SDS011;61975;48.660;10.164;2023-05-10T06:55:40;3.10;;;0.87;;
73675;SDS011;61975;48.660;10.164;2023-05-10T06:58:06;2.33;;;0.83;;
73675;SDS011;61975;48.660;10.164;2023-05-10T07:00:31;6.10;;;0.77;;
73675;SDS011;61975;48.660;10.164;2023-05-10T07:02:57;2.30;;;0.70;;
73675;SDS011;61975;48.660;10.164;2023-05-10T07:05:22;2.80;;;0.80;;
73675;SDS011;61975;48.660;10.164;2023-05-10T07:07:47;2.00;;;0.60;;
73675;SDS011;61975;48.660;10.164;2023-05-10T07:10:13;2.90;;;0.80;;
73675;SDS011;61975;48.660;10.164;2023-05-10T07:12:38;2.75;;;0.90;;
73675;SDS011;61975;48.660;10.164;2023-05-10T07:15:04;2.33;;;0.70;;
73675;SDS011;61975;48.660;10.164;2023-05-10T07:17:30;2.38;;;0.85;;
73675;SDS011;61975;48.660;10.164;2023-05-10T07:19:56;3.57;;;0.90;;
73675;SDS011;61975;48.660;10.164;2023-05-10T07:22:21;3.43;;;0.90;;
73675;SDS011;61975;48.660;10.164;2023-05-10T07:24:47;2.58;;;0.95;;
73675;SDS011;61975;48.660;10.164;2023-05-10T07:27:12;3.37;;;1.07;;
73675;SDS011;61975;48.660;10.164;2023-05-10T07:29:38;2.37;;;0.87;;
73675;SDS011;61975;48.660;10.164;2023-05-10T07:32:03;2.40;;;0.80;;
73675;SDS011;61975;48.660;10.164;2023-05-10T07:34:29;2.50;;;0.90;;
73675;SDS011;61975;48.660;10.164;2023-05-10T07:36:56;5.50;;;1.10;;
73675;SDS011;61975;48.660;10.164;2023-05-10T07:39:23;2.17;;;0.80;;
73675;SDS011;61975;48.660;10.164;2023-05-10T07:41:48;3.00;;;0.90;;
73675;SDS011;61975;48.660;10.164;2023-05-10T07:44:13;2.47;;;0.90;;
73675;SDS011;61975;48.660;10.164;2023-05-10T07:46:39;2.90;;;0.90;;
73675;SDS011;61975;48.660;10.164;2023-05-10T07:49:04;2.53;;;0.93;;
73675;SDS011;61975;48.660;10.164;2023-05-10T07:51:30;2.20;;;0.83;;
73675;SDS011;61975;48.660;10.164;2023-05-10T07:53:55;2.72;;;1.00;;
73675;SDS011;61975;48.660;10.164;2023-05-10T07:56:26;2.40;;;1.00;;
73675;SDS011;61975;48.660;10.164;2023-05-10T07:58:55;2.40;;;0.98;;
73675;SDS011;61975;48.660;10.164;2023-05-10T08:01:21;2.78;;;1.00;;
73675;SDS011;61975;48.660;10.164;2023-05-10T08:03:47;4.05;;;0.90;;
73675;SDS011;61975;48.660;10.164;2023-05-10T08:06:14;3.07;;;0.90;;
73675;SDS011;61975;48.660;10.164;2023-05-10T08:08:40;3.63;;;0.93;;
73675;SDS011;61975;48.660;10.164;2023-05-10T08:11:06;2.50;;;0.90;;
73675;SDS011;61975;48.660;10.164;2023-05-10T08:13:31;2.50;;;1.00;;
73675;SDS011;61975;48.660;10.164;2023-05-10T08:15:57;2.20;;;0.73;;
73675;SDS011;61975;48.660;10.164;2023-05-10T08:18:22;2.57;;;0.90;;
73675;SDS011;61975;48.660;10.164;2023-05-10T08:20:47;3.67;;;1.00;;
73675;SDS011;61975;48.660;10.164;2023-05-10T08:23:13;2.40;;;0.80;;
73675;SDS011;61975;48.660;10.164;2023-05-10T08:25:38;2.97;;;0.70;;
73675;SDS011;61975;48.660;10.164;2023-05-10T08:28:04;2.30;;;0.88;;
73675;SDS011;61975;48.660;10.164;2023-05-10T08:30:29;3.10;;;1.00;;
73675;SDS011;61975;48.660;10.164;2023-05-10T08:32:55;2.83;;;0.83;;
73675;SDS011;61975;48.660;10.164;2023-05-10T08:35:20;2.93;;;1.00;;
73675;SDS011;61975;48.660;10.164;2023-05-10T08:37:45;3.10;;;0.87;;
73675;SDS011;61975;48.660;10.164;2023-05-10T08:40:11;2.50;;;0.93;;
73675;SDS011;61975;48.660;10.164;2023-05-10T08:42:38;2.42;;;0.80;;
73675;SDS011;61975;48.660;10.164;2023-05-10T08:45:06;3.15;;;0.90;;
73675;SDS011;61975;48.660;10.164;2023-05-10T08:47:33;2.40;;;0.90;;
73675;SDS011;61975;48.660;10.164;2023-05-10T08:50:01;2.58;;;0.98;;
73675;SDS011;61975;48.660;10.164;2023-05-10T08:52:28;2.70;;;0.80;;
73675;SDS011;61975;48.660;10.164;2023-05-10T08:54:55;2.67;;;0.90;;
73675;SDS011;61975;48.660;10.164;2023-05-10T08:57:21;2.88;;;0.75;;
73675;SDS011;61975;48.660;10.164;2023-05-10T08:59:47;3.83;;;1.00;;
73675;SDS011;61975;48.660;10.164;2023-05-10T09:02:12;2.87;;;0.90;;
73675;SDS011;61975;48.660;10.164;2023-05-10T09:04:38;2.35;;;0.80;;
73675;SDS011;61975;48.660;10.164;2023-05-10T09:07:04;2.50;;;0.70;;
73675;SDS011;61975;48.660;10.164;2023-05-10T09:09:29;1.93;;;0.60;;
73675;SDS011;61975;48.660;10.164;2023-05-10T09:11:56;2.20;;;0.50;;
73675;SDS011;61975;48.660;10.164;2023-05-10T09:14:21;2.60;;;0.80;;
73675;SDS011;61975;48.660;10.164;2023-05-10T09:16:49;2.07;;;0.63;;
73675;SDS011;61975;48.660;10.164;2023-05-10T09:19:15;2.17;;;0.73;;
73675;SDS011;61975;48.660;10.164;2023-05-10T09:21:41;1.87;;;0.53;;
73675;SDS011;61975;48.660;10.164;2023-05-10T09:24:07;2.42;;;0.60;;
73675;SDS011;61975;48.660;10.164;2023-05-10T09:26:33;1.77;;;0.50;;
73675;SDS011;61975;48.660;10.164;2023-05-10T09:29:00;3.70;;;0.53;;
73675;SDS011;61975;48.660;10.164;2023-05-10T09:31:42;2.33;;;0.60;;
73675;SDS011;61975;48.660;10.164;2023-05-10T09:34:30;2.10;;;0.60;;
73675;SDS011;61975;48.660;10.164;2023-05-10T09:37:00;1.55;;;0.45;;
73675;SDS011;61975;48.660;10.164;2023-05-10T09:42:02;2.10;;;0.70;;
73675;SDS011;61975;48.660;10.164;2023-05-10T09:44:30;1.50;;;0.40;;
73675;SDS011;61975;48.660;10.164;2023-05-10T09:46:57;2.05;;;0.60;;
73675;SDS011;61975;48.660;10.164;2023-05-10T09:49:23;1.73;;;0.50;;
73675;SDS011;61975;48.660;10.164;2023-05-10T09:52:04;2.07;;;0.77;;
73675;SDS011;61975;48.660;10.164;2023-05-10T09:54:32;1.67;;;0.50;;
73675;SDS011;61975;48.660;10.164;2023-05-10T09:56:59;1.80;;;0.50;;
73675;SDS011;61975;48.660;10.164;2023-05-10T09:59:25;2.47;;;0.57;;
73675;SDS011;61975;48.660;10.164;2023-05-10T10:01:52;2.85;;;0.50;;
73675;SDS011;61975;48.660;10.164;2023-05-10T10:04:20;1.75;;;0.50;;
73675;SDS011;61975;48.660;10.164;2023-05-10T10:06:46;2.93;;;0.50;;
73675;SDS011;61975;48.660;10.164;2023-05-10T10:09:23;2.55;;;0.50;;
73675;SDS011;61975;48.660;10.164;2023-05-10T10:11:49;2.10;;;0.55;;
73675;SDS011;61975;48.660;10.164;2023-05-10T10:14:16;2.00;;;0.50;;
73675;SDS011;61975;48.660;10.164;2023-05-10T10:16:43;3.22;;;0.60;;
73675;SDS011;61975;48.660;10.164;2023-05-10T10:19:09;1.90;;;0.50;;
73675;SDS011;61975;48.660;10.164;2023-05-10T10:21:35;2.67;;;0.60;;
73675;SDS011;61975;48.660;10.164;2023-05-10T10:24:00;1.90;;;0.50;;
73675;SDS011;61975;48.660;10.164;2023-05-10T10:26:26;2.20;;;0.60;;
73675;SDS011;61975;48.660;10.164;2023-05-10T10:31:34;2.23;;;0.60;;
73675;SDS011;61975;48.660;10.164;2023-05-10T10:34:11;2.20;;;0.65;;
73675;SDS011;61975;48.660;10.164;2023-05-10T10:36:50;2.60;;;0.82;;
73675;SDS011;61975;48.660;10.164;2023-05-10T10:39:15;2.63;;;0.70;;
73675;SDS011;61975;48.660;10.164;2023-05-10T10:41:53;2.40;;;0.70;;
73675;SDS011;61975;48.660;10.164;2023-05-10T10:52:30;2.10;;;0.60;;
73675;SDS011;61975;48.660;10.164;2023-05-10T11:00:17;2.47;;;0.63;;
73675;SDS011;61975;48.660;10.164;2023-05-10T11:05:35;3.03;;;0.70;;
73675;SDS011;61975;48.660;10.164;2023-05-10T11:08:19;2.10;;;0.50;;
73675;SDS011;61975;48.660;10.164;2023-05-10T11:13:32;2.00;;;0.70;;
73675;SDS011;61975;48.660;10.164;2023-05-10T11:19:08;2.65;;;0.70;;
73675;SDS011;61975;48.660;10.164;2023-05-10T11:24:36;2.00;;;0.60;;
73675;SDS011;61975;48.660;10.164;2023-05-10T11:27:02;2.83;;;0.70;;
73675;SDS011;61975;48.660;10.164;2023-05-10T11:29:28;2.20;;;0.60;;
73675;SDS011;61975;48.660;10.164;2023-05-10T11:31:55;2.67;;;0.70;;
73675;SDS011;61975;48.660;10.164;2023-05-10T11:34:26;2.20;;;0.50;;
73675;SDS011;61975;48.660;10.164;2023-05-10T11:36:54;1.88;;;0.60;;
73675;SDS011;61975;48.660;10.164;2023-05-10T11:39:20;2.03;;;0.57;;
73675;SDS011;61975;48.660;10.164;2023-05-10T11:41:49;2.13;;;0.68;;
73675;SDS011;61975;48.660;10.164;2023-05-10T11:44:14;1.90;;;0.63;;
73675;SDS011;61975;48.660;10.164;2023-05-10T11:46:40;2.25;;;0.70;;
73675;SDS011;61975;48.660;10.164;2023-05-10T11:49:06;2.70;;;0.80;;
73675;SDS011;61975;48.660;10.164;2023-05-10T11:51:33;1.92;;;0.63;;
73675;SDS011;61975;48.660;10.164;2023-05-10T11:54:01;1.83;;;0.60;;
73675;SDS011;61975;48.660;10.164;2023-05-10T11:56:32;2.43;;;0.80;;
73675;SDS011;61975;48.660;10.164;2023-05-10T11:58:58;2.40;;;0.68;;
73675;SDS011;61975;48.660;10.164;2023-05-10T12:01:25;2.08;;;0.70;;
73675;SDS011;61975;48.660;10.164;2023-05-10T12:03:52;3.30;;;0.70;;
73675;SDS011;61975;48.660;10.164;2023-05-10T12:06:19;2.75;;;0.70;;
73675;SDS011;61975;48.660;10.164;2023-05-10T12:08:46;2.43;;;0.80;;
73675;SDS011;61975;48.660;10.164;2023-05-10T12:11:12;2.42;;;0.80;;
73675;SDS011;61975;48.660;10.164;2023-05-10T12:13:42;4.03;;;0.80;;
73675;SDS011;61975;48.660;10.164;2023-05-10T12:16:16;3.30;;;0.80;;
73675;SDS011;61975;48.660;10.164;2023-05-10T12:18:43;2.13;;;0.63;;
73675;SDS011;61975;48.660;10.164;2023-05-10T12:21:09;2.00;;;0.70;;
73675;SDS011;61975;48.660;10.164;2023-05-10T12:23:36;2.42;;;0.70;;
73675;SDS011;61975;48.660;10.164;2023-05-10T12:26:03;2.08;;;0.60;;
73675;SDS011;61975;48.660;10.164;2023-05-10T12:28:31;1.90;;;0.60;;
73675;SDS011;61975;48.660;10.164;2023-05-10T12:30:58;3.70;;;0.80;;
73675;SDS011;61975;48.660;10.164;2023-05-10T12:33:24;3.23;;;0.60;;
73675;SDS011;61975;48.660;10.164;2023-05-10T12:35:51;2.00;;;0.60;;
73675;SDS011;61975;48.660;10.164;2023-05-10T12:41:07;2.83;;;0.77;;
73675;SDS011;61975;48.660;10.164;2023-05-10T12:43:34;2.13;;;0.70;;
73675;SDS011;61975;48.660;10.164;2023-05-10T12:46:18;2.35;;;0.60;;
73675;SDS011;61975;48.660;10.164;2023-05-10T12:48:44;2.50;;;0.65;;
73675;SDS011;61975;48.660;10.164;2023-05-10T12:51:11;2.10;;;0.70;;
73675;SDS011;61975;48.660;10.164;2023-05-10T12:53:38;2.08;;;0.70;;
73675;SDS011;61975;48.660;10.164;2023-05-10T12:56:04;2.70;;;0.70;;
73675;SDS011;61975;48.660;10.164;2023-05-10T12:58:30;2.35;;;0.70;;
73675;SDS011;61975;48.660;10.164;2023-05-10T13:00:55;2.80;;;0.70;;
73675;SDS011;61975;48.660;10.164;2023-05-10T13:03:21;2.00;;;0.70;;
73675;SDS011;61975;48.660;10.164;2023-05-10T13:05:47;2.08;;;0.60;;
73675;SDS011;61975;48.660;10.164;2023-05-10T13:08:12;2.20;;;0.77;;
73675;SDS011;61975;48.660;10.164;2023-05-10T13:10:38;2.47;;;0.70;;
73675;SDS011;61975;48.660;10.164;2023-05-10T13:13:03;1.87;;;0.60;;
73675;SDS011;61975;48.660;10.164;2023-05-10T13:15:30;2.70;;;0.50;;
73675;SDS011;61975;48.660;10.164;2023-05-10T13:17:55;1.40;;;0.40;;
73675;SDS011;61975;48.660;10.164;2023-05-10T13:20:21;2.38;;;0.50;;
73675;SDS011;61975;48.660;10.164;2023-05-10T13:22:46;3.70;;;0.43;;
73675;SDS011;61975;48.660;10.164;2023-05-10T13:25:12;1.90;;;0.60;;
73675;SDS011;61975;48.660;10.164;2023-05-10T13:27:38;2.40;;;0.57;;
73675;SDS011;61975;48.660;10.164;2023-05-10T13:30:06;1.97;;;0.57;;
73675;SDS011;61975;48.660;10.164;2023-05-10T13:32:33;2.05;;;0.50;;
73675;SDS011;61975;48.660;10.164;2023-05-10T13:34:59;2.83;;;0.52;;
73675;SDS011;61975;48.660;10.164;2023-05-10T13:37:24;3.70;;;0.80;;
73675;SDS011;61975;48.660;10.164;2023-05-10T13:39:49;2.63;;;0.43;;
73675;SDS011;61975;48.660;10.164;2023-05-10T13:42:15;2.10;;;0.50;;
73675;SDS011;61975;48.660;10.164;2023-05-10T13:44:40;3.45;;;0.60;;
73675;SDS011;61975;48.660;10.164;2023-05-10T13:47:06;1.97;;;0.50;;
73675;SDS011;61975;48.660;10.164;2023-05-10T13:49:31;2.43;;;0.67;;
73675;SDS011;61975;48.660;10.164;2023-05-10T13:51:57;3.03;;;0.60;;
73675;SDS011;61975;48.660;10.164;2023-05-10T13:54:23;2.00;;;0.60;;
73675;SDS011;61975;48.660;10.164;2023-05-10T13:56:48;2.85;;;0.85;;
73675;SDS011;61975;48.660;10.164;2023-05-10T13:59:14;2.20;;;0.60;;
73675;SDS011;61975;48.660;10.164;2023-05-10T14:01:40;2.00;;;0.50;;
73675;SDS011;61975;48.660;10.164;2023-05-10T14:04:06;3.75;;;0.70;;
73675;SDS011;61975;48.660;10.164;2023-05-10T14:06:35;3.00;;;0.60;;
73675;SDS011;61975;48.660;10.164;2023-05-10T14:09:01;2.72;;;0.50;;
73675;SDS011;61975;48.660;10.164;2023-05-10T14:11:27;3.37;;;0.57;;
73675;SDS011;61975;48.660;10.164;2023-05-10T14:13:52;2.00;;;0.50;;
73675;SDS011;61975;48.660;10.164;2023-05-10T14:16:18;2.63;;;0.60;;
73675;SDS011;61975;48.660;10.164;2023-05-10T14:18:45;1.75;;;0.50;;
73675;SDS011;61975;48.660;10.164;2023-05-10T14:21:10;4.37;;;0.80;;
73675;SDS011;61975;48.660;10.164;2023-05-10T14:23:36;3.50;;;0.60;;
73675;SDS011;61975;48.660;10.164;2023-05-10T14:26:01;2.57;;;0.60;;
73675;SDS011;61975;48.660;10.164;2023-05-10T14:28:27;1.92;;;0.52;;
73675;SDS011;61975;48.660;10.164;2023-05-10T14:30:53;3.07;;;0.70;;
73675;SDS011;61975;48.660;10.164;2023-05-10T14:33:18;2.53;;;0.60;;
73675;SDS011;61975;48.660;10.164;2023-05-10T14:35:44;2.40;;;0.80;;
73675;SDS011;61975;48.660;10.164;2023-05-10T14:38:10;2.10;;;0.50;;
73675;SDS011;61975;48.660;10.164;2023-05-10T14:40:35;2.10;;;0.50;;
73675;SDS011;61975;48.660;10.164;2023-05-10T14:43:01;3.17;;;0.70;;
73675;SDS011;61975;48.660;10.164;2023-05-10T14:45:26;2.50;;;0.90;;
73675;SDS011;61975;48.660;10.164;2023-05-10T14:47:52;2.60;;;0.70;;
73675;SDS011;61975;48.660;10.164;2023-05-10T14:50:17;2.10;;;0.70;;
73675;SDS011;61975;48.660;10.164;2023-05-10T14:52:43;2.60;;;0.70;;
73675;SDS011;61975;48.660;10.164;2023-05-10T14:55:09;2.22;;;0.68;;
73675;SDS011;61975;48.660;10.164;2023-05-10T14:57:35;2.17;;;0.63;;
73675;SDS011;61975;48.660;10.164;2023-05-10T15:00:00;2.28;;;0.80;;
73675;SDS011;61975;48.660;10.164;2023-05-10T15:02:26;2.30;;;0.80;;
73675;SDS011;61975;48.660;10.164;2023-05-10T15:04:51;3.00;;;0.87;;
73675;SDS011;61975;48.660;10.164;2023-05-10T15:07:17;3.17;;;1.00;;
73675;SDS011;61975;48.660;10.164;2023-05-10T15:09:43;3.50;;;1.10;;
73675;SDS011;61975;48.660;10.164;2023-05-10T15:12:09;4.45;;;1.20;;
73675;SDS011;61975;48.660;10.164;2023-05-10T15:14:34;3.57;;;0.90;;
73675;SDS011;61975;48.660;10.164;2023-05-10T15:17:01;3.28;;;1.13;;
73675;SDS011;61975;48.660;10.164;2023-05-10T15:19:27;3.95;;;0.90;;
73675;SDS011;61975;48.660;10.164;2023-05-10T15:21:53;2.93;;;1.10;;
73675;SDS011;61975;48.660;10.164;2023-05-10T15:24:19;3.30;;;1.10;;
73675;SDS011;61975;48.660;10.164;2023-05-10T15:26:44;2.73;;;0.90;;